Time;durP1;ratioP1;P1;durP2;ratioP2;P2;SDS_P1;SDS_P2;PMS_P1;PMS_P2;Temp;Humidity;BMP_temperature;BMP_pressure;BME280_temperature;BME280_humidity;BME280_pressure;Samples;Min_cycle;Max_cycle;Signal;HPM_P1;HPM_P2
2021/03/30 00:05:11;;;;;;;11.07;5.50;;;11.70;99.90;;;;;;12376505;28;20049;-42
2021/03/30 00:11:13;;;;;;;12.15;5.35;;;11.60;99.90;;;;;;12372963;28;20056;-43
2021/03/30 00:17:14;;;;;;;8.10;4.75;;;11.50;99.90;;;;;;12379028;28;20041;-42
2021/03/30 00:23:15;;;;;;;7.85;4.70;;;11.50;99.90;;;;;;12372122;28;20092;-41
2021/03/30 00:29:17;;;;;;;11.07;5.53;;;11.50;99.90;;;;;;12372922;28;20081;-42
2021/03/30 00:35:18;;;;;;;8.82;4.70;;;11.40;99.90;;;;;;12374799;28;20046;-42
2021/03/30 00:41:19;;;;;;;12.15;5.47;;;11.40;99.90;;;;;;12373181;28;20054;-42
2021/03/30 00:47:21;;;;;;;12.25;5.28;;;11.30;99.90;;;;;;12373515;28;20054;-45
2021/03/30 00:53:23;;;;;;;14.85;4.85;;;11.30;99.90;;;;;;12378719;28;20929;-41
2021/03/30 00:59:25;;;;;;;11.98;5.53;;;11.30;99.90;;;;;;12372929;28;20054;-41
2021/03/30 01:05:27;;;;;;;8.93;5.13;;;11.20;99.90;;;;;;12366846;28;20811;-44
2021/03/30 01:11:28;;;;;;;11.57;5.65;;;11.20;99.90;;;;;;12369299;28;20145;-42
2021/03/30 01:17:54;;;;;;;10.13;5.45;;;11.20;99.90;;;;;;12370260;28;20652;-43
2021/03/30 01:24:25;;;;;;;11.32;5.55;;;11.00;99.90;;;;;;12372568;28;20465;-42
2021/03/30 01:30:29;;;;;;;10.82;5.55;;;10.90;99.90;;;;;;12365751;28;20064;-41
2021/03/30 01:36:36;;;;;;;14.68;5.57;;;10.90;99.90;;;;;;12367691;28;20053;-43
2021/03/30 01:42:38;;;;;;;9.27;5.45;;;10.80;99.90;;;;;;12372364;28;20104;-41
2021/03/30 01:48:42;;;;;;;12.35;5.53;;;10.80;99.90;;;;;;12372694;28;20046;-41
2021/03/30 01:54:45;;;;;;;12.37;5.77;;;10.90;99.90;;;;;;12369270;28;20081;-44
2021/03/30 02:00:48;;;;;;;12.57;5.95;;;11.00;99.90;;;;;;12369863;28;20038;-43
2021/03/30 02:06:50;;;;;;;9.38;5.45;;;11.00;99.90;;;;;;12383589;28;20123;-42
2021/03/30 02:12:51;;;;;;;11.27;6.03;;;10.80;99.90;;;;;;12370642;28;20078;-43
2021/03/30 02:19:12;;;;;;;11.93;6.18;;;10.80;99.90;;;;;;12372072;28;20053;-42
2021/03/30 02:25:14;;;;;;;12.25;6.38;;;10.70;99.90;;;;;;12371399;28;20046;-41
2021/03/30 02:31:20;;;;;;;12.52;6.28;;;10.60;99.90;;;;;;12383870;28;20049;-41
2021/03/30 02:37:23;;;;;;;15.27;6.80;;;10.70;99.90;;;;;;12383628;28;20163;-42
2021/03/30 02:43:26;;;;;;;14.18;6.97;;;10.70;99.90;;;;;;12371202;28;20042;-41
2021/03/30 02:49:29;;;;;;;11.70;7.68;;;10.80;99.90;;;;;;12384703;28;20133;-41
2021/03/30 02:55:34;;;;;;;13.52;7.85;;;10.80;99.90;;;;;;12381217;28;20165;-42
2021/03/30 03:01:36;;;;;;;16.73;8.77;;;10.70;99.90;;;;;;12379393;28;20046;-41
2021/03/30 03:07:38;;;;;;;18.25;8.90;;;10.70;99.90;;;;;;12375499;28;20144;-41
2021/03/30 03:13:43;;;;;;;13.85;7.90;;;10.60;99.90;;;;;;12378577;28;20085;-42
2021/03/30 03:19:45;;;;;;;15.70;8.43;;;10.40;99.90;;;;;;12374009;28;20458;-42
2021/03/30 03:25:47;;;;;;;16.42;7.93;;;10.40;99.90;;;;;;12376898;28;20133;-43
2021/03/30 03:31:49;;;;;;;14.57;7.85;;;10.50;99.90;;;;;;12376653;28;20129;-42
2021/03/30 03:37:51;;;;;;;16.45;8.38;;;10.50;99.90;;;;;;12375239;28;20046;-42
2021/03/30 03:43:53;;;;;;;18.15;8.68;;;10.40;99.90;;;;;;12381443;28;20486;-41
2021/03/30 03:49:54;;;;;;;19.40;8.35;;;10.40;99.90;;;;;;12374324;28;20056;-41
2021/03/30 03:55:57;;;;;;;15.27;8.48;;;10.40;99.90;;;;;;12375446;28;20077;-42
2021/03/30 04:02:07;;;;;;;14.95;8.50;;;10.20;99.90;;;;;;12375714;28;20734;-42
2021/03/30 04:08:12;;;;;;;16.05;8.82;;;10.10;99.90;;;;;;12374467;28;20397;-42
2021/03/30 04:14:14;;;;;;;20.77;10.05;;;9.80;99.90;;;;;;12374639;28;20096;-42
2021/03/30 04:20:17;;;;;;;16.30;10.05;;;9.70;99.90;;;;;;12366480;28;20066;-41
2021/03/30 04:26:19;;;;;;;22.50;10.68;;;9.70;99.90;;;;;;12352879;28;20080;-41
2021/03/30 04:32:20;;;;;;;18.63;10.35;;;9.80;99.90;;;;;;12376346;28;20054;-42
2021/03/30 04:38:23;;;;;;;18.27;10.50;;;9.90;99.90;;;;;;12372872;28;20089;-41
2021/03/30 04:44:25;;;;;;;26.35;10.93;;;9.70;99.90;;;;;;12361852;28;20042;-42
2021/03/30 04:50:26;;;;;;;20.17;9.85;;;9.60;99.90;;;;;;12369812;28;20046;-41
2021/03/30 04:56:27;;;;;;;19.73;10.27;;;9.60;99.90;;;;;;12371217;28;20504;-41
2021/03/30 05:02:29;;;;;;;24.83;10.98;;;9.80;99.90;;;;;;12372023;28;20156;-42
2021/03/30 05:08:30;;;;;;;16.30;7.20;;;10.00;99.90;;;;;;12357188;28;20082;-42
2021/03/30 05:14:31;;;;;;;15.10;7.13;;;9.60;99.90;;;;;;12372156;28;20180;-41
2021/03/30 05:20:33;;;;;;;12.05;7.20;;;9.70;99.90;;;;;;12362071;28;20054;-42
2021/03/30 05:26:34;;;;;;;13.30;7.28;;;9.10;99.90;;;;;;12366871;28;20466;-41
2021/03/30 05:32:36;;;;;;;13.90;8.27;;;8.90;99.90;;;;;;12366674;28;20538;-42
2021/03/30 05:38:38;;;;;;;14.38;8.20;;;8.90;99.90;;;;;;12367160;28;20076;-43
2021/03/30 05:44:40;;;;;;;15.90;8.30;;;8.80;99.90;;;;;;12359450;28;20085;-42
2021/03/30 05:50:42;;;;;;;15.30;7.85;;;8.80;99.90;;;;;;12366178;28;20132;-41
2021/03/30 05:56:44;;;;;;;18.95;10.18;;;8.90;99.90;;;;;;12374772;28;20148;-42
2021/03/30 06:02:47;;;;;;;19.42;9.65;;;9.20;99.90;;;;;;12369541;28;21358;-42
2021/03/30 06:08:49;;;;;;;17.42;8.80;;;9.40;99.90;;;;;;12360329;28;20046;-42
2021/03/30 06:14:50;;;;;;;16.70;8.75;;;9.60;99.90;;;;;;12372776;28;20050;-42
2021/03/30 06:20:51;;;;;;;15.52;9.30;;;9.70;99.90;;;;;;12367947;28;20078;-42
2021/03/30 06:26:56;;;;;;;16.75;8.95;;;9.80;99.90;;;;;;12368277;28;20077;-42
2021/03/30 06:32:58;;;;;;;21.20;10.07;;;10.10;99.90;;;;;;12378474;28;20089;-41
2021/03/30 06:39:04;;;;;;;17.42;8.73;;;10.70;99.90;;;;;;12371703;28;20486;-43
2021/03/30 06:45:27;;;;;;;22.05;9.18;;;11.30;99.90;;;;;;12368828;28;20089;-42
2021/03/30 06:51:39;;;;;;;22.90;10.52;;;11.60;99.90;;;;;;12372184;28;20440;-42
2021/03/30 06:57:48;;;;;;;22.25;11.02;;;11.30;99.90;;;;;;12374113;28;20041;-44
2021/03/30 07:03:50;;;;;;;21.13;10.38;;;11.50;99.90;;;;;;12375898;28;20070;-42
2021/03/30 07:09:52;;;;;;;21.92;11.93;;;11.70;99.90;;;;;;12372135;28;20064;-42
2021/03/30 07:16:04;;;;;;;22.17;11.68;;;12.00;99.90;;;;;;12376831;28;20050;-42
2021/03/30 07:22:11;;;;;;;21.95;11.23;;;12.20;99.90;;;;;;12374065;28;20089;-42
2021/03/30 07:28:18;;;;;;;27.80;13.38;;;12.30;99.90;;;;;;12374924;28;20046;-44
2021/03/30 07:34:41;;;;;;;22.00;11.90;;;12.60;99.90;;;;;;12377187;28;20129;-42
2021/03/30 07:40:43;;;;;;;20.10;11.25;;;12.90;99.90;;;;;;12370442;28;20045;-44
2021/03/30 07:46:44;;;;;;;24.70;12.07;;;13.20;99.90;;;;;;12379320;28;20082;-42
2021/03/30 07:52:55;;;;;;;23.70;12.32;;;13.50;99.90;;;;;;12371412;28;20064;-42
2021/03/30 07:58:57;;;;;;;27.83;14.25;;;13.60;99.90;;;;;;12375859;28;20848;-43
2021/03/30 08:05:02;;;;;;;23.45;13.02;;;13.60;99.90;;;;;;12371992;28;20065;-46
2021/03/30 08:11:03;;;;;;;26.42;14.50;;;13.90;99.90;;;;;;12373360;28;20073;-42
2021/03/30 08:17:10;;;;;;;25.13;13.82;;;14.20;99.90;;;;;;12374470;28;21260;-42
2021/03/30 08:23:13;;;;;;;23.77;13.90;;;14.50;99.90;;;;;;12369266;28;20140;-44
2021/03/30 08:29:19;;;;;;;24.10;13.38;;;14.70;99.90;;;;;;12369703;28;20085;-42
2021/03/30 08:35:27;;;;;;;24.17;12.73;;;14.80;99.90;;;;;;12366601;28;20081;-43
2021/03/30 08:41:45;;;;;;;23.17;12.40;;;15.00;99.90;;;;;;12368987;28;20051;-43
2021/03/30 08:47:47;;;;;;;41.95;13.00;;;15.20;99.90;;;;;;12375276;28;20057;-42
2021/03/30 08:53:48;;;;;;;24.60;13.05;;;15.40;99.90;;;;;;12373576;28;20046;-42
2021/03/30 08:59:50;;;;;;;26.15;12.93;;;15.50;99.90;;;;;;12373691;28;21371;-42
2021/03/30 09:05:52;;;;;;;26.73;12.75;;;15.60;99.90;;;;;;12369630;28;20082;-43
2021/03/30 09:11:54;;;;;;;22.13;12.15;;;15.80;99.90;;;;;;12369481;28;20152;-44
2021/03/30 09:18:00;;;;;;;26.40;12.15;;;16.10;99.90;;;;;;12368241;28;20051;-42
2021/03/30 09:24:07;;;;;;;25.08;12.60;;;16.30;99.90;;;;;;12375577;28;20046;-43
2021/03/30 09:30:15;;;;;;;29.10;12.57;;;16.60;99.90;;;;;;12378925;28;20049;-44
2021/03/30 09:36:16;;;;;;;24.35;12.85;;;16.80;99.90;;;;;;12370460;28;20145;-42
2021/03/30 09:42:17;;;;;;;22.02;12.63;;;17.20;99.90;;;;;;12375060;28;20055;-43
2021/03/30 09:48:19;;;;;;;25.70;11.10;;;17.20;99.90;;;;;;12367150;28;20172;-46
2021/03/30 09:54:37;;;;;;;22.40;11.73;;;17.30;99.90;;;;;;12379865;28;20046;-42
2021/03/30 10:00:41;;;;;;;20.08;10.23;;;17.70;97.70;;;;;;12369579;28;20471;-42
2021/03/30 10:06:43;;;;;;;21.42;11.90;;;17.80;93.60;;;;;;12364307;28;20054;-43
2021/03/30 10:13:00;;;;;;;20.42;11.10;;;18.00;93.70;;;;;;12370164;28;20082;-43
2021/03/30 10:19:10;;;;;;;22.00;12.10;;;18.20;91.90;;;;;;12371093;28;20157;-42
2021/03/30 10:25:20;;;;;;;24.58;11.35;;;18.50;91.20;;;;;;12374461;28;20144;-45
2021/03/30 10:37:47;;;;;;;18.55;8.93;;;18.80;86.40;;;;;;12369016;28;20070;-44
2021/03/30 10:43:57;;;;;;;14.68;7.20;;;18.80;83.70;;;;;;12371134;28;20046;-42
2021/03/30 10:50:00;;;;;;;14.77;8.13;;;19.10;79.00;;;;;;12377013;28;20088;-43
2021/03/30 10:56:03;;;;;;;13.27;7.47;;;19.30;83.90;;;;;;12375042;28;20053;-43
2021/03/30 11:02:05;;;;;;;14.88;7.75;;;19.30;71.10;;;;;;12375030;28;20042;-44
2021/03/30 11:08:06;;;;;;;13.27;6.25;;;19.60;74.70;;;;;;12376490;28;20061;-42
2021/03/30 11:14:07;;;;;;;11.98;5.65;;;19.80;69.30;;;;;;12368419;28;20148;-43
2021/03/30 11:20:12;;;;;;;12.20;5.57;;;;;;;;;;12375913;28;20068;-43
2021/03/30 11:26:15;;;;;;;12.15;5.70;;;20.30;65.40;;;;;;12374663;28;20096;-42
2021/03/30 11:38:36;;;;;;;12.40;5.78;;;20.30;64.70;;;;;;12367216;28;20431;-42
2021/03/30 11:44:38;;;;;;;11.25;5.78;;;20.70;65.50;;;;;;12361234;28;20450;-45
2021/03/30 11:50:39;;;;;;;10.18;5.57;;;20.80;67.30;;;;;;12369912;28;20061;-43
2021/03/30 11:56:41;;;;;;;13.85;5.72;;;20.80;59.90;;;;;;12371593;28;20527;-43
2021/03/30 12:02:44;;;;;;;11.50;5.82;;;21.00;67.30;;;;;;12375091;28;20093;-42
2021/03/30 12:08:45;;;;;;;10.48;6.00;;;21.20;60.20;;;;;;12373536;28;20145;-43
2021/03/30 12:14:47;;;;;;;9.68;4.20;;;21.10;59.20;;;;;;12373177;28;20125;-43
2021/03/30 12:20:48;;;;;;;9.52;4.60;;;21.30;55.50;;;;;;12365387;28;20137;-44
2021/03/30 12:26:50;;;;;;;11.50;5.20;;;21.80;61.50;;;;;;12369978;28;20146;-42
2021/03/30 12:32:51;;;;;;;9.18;4.97;;;21.80;65.10;;;;;;12363346;28;20149;-44
2021/03/30 12:38:53;;;;;;;7.47;4.00;;;21.90;58.30;;;;;;12362316;28;20443;-44
2021/03/30 12:44:55;;;;;;;13.38;5.32;;;21.60;54.90;;;;;;12371650;28;20121;-42
2021/03/30 12:50:56;;;;;;;7.20;4.03;;;22.20;56.60;;;;;;12367622;28;20077;-43
2021/03/30 12:56:58;;;;;;;9.38;4.10;;;22.40;56.40;;;;;;12370006;28;20148;-43
2021/03/30 13:02:59;;;;;;;8.40;4.03;;;22.20;53.50;;;;;;12366880;28;20046;-43
2021/03/30 13:09:01;;;;;;;10.43;5.07;;;22.40;57.30;;;;;;12364822;28;20129;-44
2021/03/30 13:15:05;;;;;;;11.93;5.97;;;22.10;54.40;;;;;;12367356;28;20073;-43
2021/03/30 13:21:09;;;;;;;9.93;5.20;;;22.00;53.20;;;;;;12365543;28;20182;-45
2021/03/30 13:27:12;;;;;;;11.32;5.68;;;22.00;57.00;;;;;;12366539;28;20054;-42
2021/03/30 13:33:13;;;;;;;10.68;6.40;;;22.10;54.40;;;;;;12368848;28;20153;-44
2021/03/30 13:39:14;;;;;;;11.38;6.10;;;22.30;56.70;;;;;;12366492;28;20463;-43
2021/03/30 13:45:16;;;;;;;11.77;6.03;;;22.30;54.80;;;;;;12366023;28;20137;-42
2021/03/30 13:51:17;;;;;;;12.15;6.25;;;21.80;52.60;;;;;;12366260;28;20084;-43
2021/03/30 13:57:20;;;;;;;11.48;6.88;;;21.90;59.00;;;;;;12369860;28;20588;-43
2021/03/30 14:03:21;;;;;;;10.90;5.10;;;21.90;55.10;;;;;;12367591;28;20149;-42
2021/03/30 14:09:23;;;;;;;9.68;5.07;;;21.80;53.30;;;;;;12367652;28;20053;-43
2021/03/30 14:15:48;;;;;;;10.55;4.97;;;21.60;54.20;;;;;;12366144;28;20126;-43
2021/03/30 14:21:53;;;;;;;10.95;5.15;;;21.70;55.60;;;;;;12379285;28;20370;-44
2021/03/30 14:27:54;;;;;;;9.57;5.50;;;21.70;52.90;;;;;;12371465;28;20085;-42
2021/03/30 14:34:07;;;;;;;12.55;6.05;;;21.80;52.40;;;;;;12370783;28;20047;-43
2021/03/30 14:40:18;;;;;;;10.60;5.70;;;21.80;54.90;;;;;;12373220;28;20061;-42
2021/03/30 14:59:08;;;;;;;10.50;5.45;;;21.90;52.50;;;;;;12372703;28;20046;-42
2021/03/30 15:05:10;;;;;;;11.50;6.47;;;22.10;53.30;;;;;;12372903;28;20074;-43
2021/03/30 15:11:11;;;;;;;19.90;6.07;;;22.10;53.20;;;;;;12366769;28;20057;-42
2021/03/30 15:17:13;;;;;;;10.55;6.07;;;22.20;52.70;;;;;;12370929;28;20463;-44
2021/03/30 15:23:15;;;;;;;13.05;6.07;;;22.20;50.60;;;;;;12369515;28;20054;-43
2021/03/30 15:29:17;;;;;;;11.00;6.32;;;22.40;54.40;;;;;;12364871;28;20046;-43
2021/03/30 15:35:19;;;;;;;13.45;6.30;;;22.70;55.00;;;;;;12368707;28;20145;-43
2021/03/30 15:41:20;;;;;;;8.98;5.70;;;22.80;54.20;;;;;;12358981;28;21063;-42
2021/03/30 15:47:23;;;;;;;13.65;6.30;;;22.40;53.70;;;;;;12370857;28;20088;-43
2021/03/30 15:53:25;;;;;;;14.20;6.35;;;22.60;57.80;;;;;;12371933;28;20716;-47
2021/03/30 15:59:26;;;;;;;11.50;5.75;;;22.80;58.60;;;;;;12362005;28;20057;-42
2021/03/30 16:05:28;;;;;;;11.35;6.15;;;22.90;57.80;;;;;;12370727;28;20632;-42
2021/03/30 16:11:30;;;;;;;10.20;6.00;;;22.60;61.00;;;;;;12361546;28;20049;-45
2021/03/30 16:17:32;;;;;;;11.05;6.50;;;22.90;67.40;;;;;;12364840;28;20162;-44
2021/03/30 16:23:34;;;;;;;15.10;6.68;;;22.60;65.60;;;;;;12368120;28;20142;-43
2021/03/30 16:29:37;;;;;;;9.35;5.63;;;23.10;67.90;;;;;;12362659;28;20584;-43
2021/03/30 16:35:55;;;;;;;12.30;6.35;;;23.30;66.60;;;;;;12367274;28;20126;-44
2021/03/30 16:41:57;;;;;;;10.85;6.35;;;23.60;63.70;;;;;;12367832;28;20141;-44
2021/03/30 16:47:59;;;;;;;12.65;6.45;;;23.50;66.60;;;;;;12363765;28;20133;-45
2021/03/30 16:54:00;;;;;;;12.63;7.05;;;23.60;68.10;;;;;;12366171;28;20104;-50
2021/03/30 17:00:04;;;;;;;12.57;6.88;;;23.40;73.40;;;;;;12353043;28;20751;-43
2021/03/30 17:06:05;;;;;;;11.85;6.15;;;23.20;73.10;;;;;;12367941;28;20082;-45
2021/03/30 17:12:07;;;;;;;10.50;6.90;;;23.10;73.00;;;;;;12362213;28;20312;-43
2021/03/30 17:18:12;;;;;;;16.60;6.70;;;22.70;75.00;;;;;;12366587;28;20632;-42
2021/03/30 17:24:18;;;;;;;14.43;7.43;;;22.10;76.10;;;;;;12355257;28;20042;-43
2021/03/30 17:30:20;;;;;;;13.88;7.07;;;21.30;77.50;;;;;;12364734;28;20054;-42
2021/03/30 17:36:22;;;;;;;10.98;6.53;;;20.40;79.40;;;;;;12361793;28;20074;-44
2021/03/30 17:42:23;;;;;;;12.38;6.30;;;19.50;83.20;;;;;;12362630;28;20108;-42
2021/03/30 17:48:25;;;;;;;16.10;7.57;;;18.80;83.20;;;;;;12353491;28;20141;-42
2021/03/30 17:54:26;;;;;;;18.30;6.88;;;17.80;65.20;;;;;;12365410;28;20050;-43
2021/03/30 18:00:27;;;;;;;13.68;6.70;;;17.10;74.90;;;;;;12363639;28;20214;-43
2021/03/30 18:06:29;;;;;;;10.88;6.68;;;16.50;81.40;;;;;;12353083;28;20053;-42
2021/03/30 18:12:31;;;;;;;12.90;6.93;;;16.20;94.30;;;;;;12360551;28;20050;-42
2021/03/30 18:18:33;;;;;;;11.68;6.82;;;15.30;82.50;;;;;;12355110;28;20133;-42
2021/03/30 18:24:34;;;;;;;14.07;6.93;;;14.80;91.10;;;;;;12361355;28;20419;-41
2021/03/30 18:30:36;;;;;;;14.13;6.95;;;14.60;91.70;;;;;;12365344;28;20069;-42
2021/03/30 18:36:41;;;;;;;16.90;8.00;;;14.20;95.60;;;;;;12356742;28;20068;-44
2021/03/30 18:42:43;;;;;;;18.38;8.02;;;13.80;97.90;;;;;;12362551;28;20074;-42
2021/03/30 18:48:47;;;;;;;;;;;13.60;99.40;;;;;;12355096;28;20447;-42
2021/03/30 18:54:49;;;;;;;16.77;8.60;;;13.30;99.90;;;;;;12366997;28;20024;-42
2021/03/30 19:00:55;;;;;;;13.68;7.45;;;13.20;97.80;;;;;;12371708;28;20038;-43
2021/03/30 19:06:56;;;;;;;15.70;7.00;;;13.00;99.90;;;;;;12370059;28;20053;-41
2021/03/30 19:12:58;;;;;;;20.92;7.90;;;12.90;99.90;;;;;;12378799;28;20068;-42
2021/03/30 19:19:00;;;;;;;13.40;7.95;;;12.80;99.90;;;;;;12371084;28;20053;-42
2021/03/30 19:25:04;;;;;;;11.95;7.18;;;12.50;99.90;;;;;;12372971;28;20038;-42
2021/03/30 19:31:09;;;;;;;13.02;7.22;;;12.40;99.90;;;;;;12370036;28;20061;-42
2021/03/30 19:37:11;;;;;;;13.75;8.07;;;12.20;99.90;;;;;;12373507;28;20504;-42
2021/03/30 19:43:14;;;;;;;16.20;8.05;;;12.10;99.90;;;;;;12371216;28;20095;-42
2021/03/30 19:49:15;;;;;;;14.50;7.25;;;12.30;99.90;;;;;;12373950;28;20054;-42
2021/03/30 19:55:24;;;;;;;13.77;6.35;;;12.40;99.90;;;;;;12377431;28;20053;-42
2021/03/30 20:01:26;;;;;;;14.32;6.80;;;12.40;99.90;;;;;;12371764;28;20046;-42
2021/03/30 20:07:27;;;;;;;15.27;7.03;;;12.30;99.90;;;;;;12370613;28;20481;-42
2021/03/30 20:13:29;;;;;;;16.00;7.15;;;12.20;99.90;;;;;;12369514;28;20169;-43
2021/03/30 20:19:30;;;;;;;13.38;6.65;;;12.10;99.90;;;;;;12375519;28;20069;-42
2021/03/30 20:25:31;;;;;;;14.23;6.72;;;12.10;99.90;;;;;;12366924;28;20580;-42
2021/03/30 20:31:33;;;;;;;13.73;7.25;;;11.90;99.90;;;;;;12371623;28;20061;-42
2021/03/30 20:37:35;;;;;;;14.60;7.82;;;11.90;99.90;;;;;;12375107;28;20061;-42
2021/03/30 20:43:41;;;;;;;13.35;6.80;;;11.70;99.90;;;;;;12348827;28;20144;-42
2021/03/30 20:49:43;;;;;;;13.60;6.97;;;11.70;99.90;;;;;;12364770;28;20553;-42
2021/03/30 20:55:44;;;;;;;15.88;7.78;;;11.40;99.90;;;;;;12357283;28;20066;-42
2021/03/30 21:01:46;;;;;;;12.65;7.28;;;11.40;99.90;;;;;;12366867;28;20046;-41
2021/03/30 21:07:47;;;;;;;18.73;8.30;;;11.30;99.90;;;;;;12366643;28;20070;-42
2021/03/30 21:13:49;;;;;;;15.05;8.23;;;11.20;99.90;;;;;;12367092;28;20046;-42
2021/03/30 21:19:50;;;;;;;17.48;8.15;;;11.00;99.90;;;;;;12365890;28;20080;-41
2021/03/30 21:25:52;;;;;;;15.80;8.73;;;10.90;99.90;;;;;;12370192;28;20080;-41
2021/03/30 21:31:54;;;;;;;19.85;9.50;;;11.00;99.90;;;;;;12370969;28;20145;-42
2021/03/30 21:37:55;;;;;;;18.88;8.40;;;10.90;99.90;;;;;;12372318;28;20195;-43
2021/03/30 21:43:57;;;;;;;16.23;8.50;;;10.90;99.90;;;;;;12366339;28;20046;-42
2021/03/30 21:49:58;;;;;;;19.25;9.45;;;10.80;99.90;;;;;;12370505;28;20074;-42
2021/03/30 21:56:00;;;;;;;21.38;9.43;;;11.00;99.90;;;;;;12366630;28;20137;-42
2021/03/30 22:02:02;;;;;;;16.45;9.40;;;10.80;99.90;;;;;;12366742;28;20045;-41
2021/03/30 22:08:04;;;;;;;19.38;9.48;;;10.80;99.90;;;;;;12372426;28;20466;-42
2021/03/30 22:14:10;;;;;;;21.52;9.82;;;10.90;99.90;;;;;;12364457;28;20050;-41
2021/03/30 22:20:15;;;;;;;20.27;9.68;;;10.80;99.90;;;;;;12362077;28;20065;-41
2021/03/30 22:26:20;;;;;;;20.58;9.93;;;10.70;99.90;;;;;;12369511;28;20501;-41
2021/03/30 22:32:41;;;;;;;19.60;9.25;;;10.50;99.90;;;;;;12371959;28;20080;-42
2021/03/30 22:38:44;;;;;;;19.33;10.10;;;10.40;99.90;;;;;;12373466;28;20136;-44
2021/03/30 22:44:45;;;;;;;20.40;9.55;;;10.40;99.90;;;;;;12373852;28;20053;-42
2021/03/30 22:50:47;;;;;;;19.70;10.63;;;10.40;99.90;;;;;;12372481;28;20153;-41
2021/03/30 22:56:49;;;;;;;21.38;9.70;;;10.40;99.90;;;;;;12371683;28;20202;-43
2021/03/30 23:02:50;;;;;;;21.50;10.02;;;10.30;99.90;;;;;;12369248;28;20081;-42
2021/03/30 23:08:52;;;;;;;19.45;9.38;;;10.30;99.90;;;;;;12380806;28;20457;-41
2021/03/30 23:14:53;;;;;;;18.25;9.40;;;10.20;99.90;;;;;;12376672;28;20050;-43
2021/03/30 23:20:55;;;;;;;20.20;9.27;;;10.00;99.90;;;;;;12368161;28;20082;-42
2021/03/30 23:26:57;;;;;;;18.02;8.77;;;9.90;99.90;;;;;;12375990;28;20054;-42
2021/03/30 23:32:58;;;;;;;21.73;9.77;;;9.90;99.90;;;;;;12372472;28;20090;-42
2021/03/30 23:39:00;;;;;;;18.02;9.20;;;9.90;99.90;;;;;;12369610;28;20515;-42
2021/03/30 23:45:02;;;;;;;19.52;9.38;;;9.90;99.90;;;;;;12376234;28;20046;-42
2021/03/30 23:51:04;;;;;;;17.50;9.23;;;9.80;99.90;;;;;;12371899;28;20070;-41
2021/03/30 23:57:06;;;;;;;20.90;8.88;;;9.60;99.90;;;;;;12376122;28;20050;-43
